Poquetanuck, Connecticut
Current Conditions -  °F | °C
As of 6:52 AM on Sunday 23 Nov 2014 (Local Time) from KIJD Reporting Station
Overcast Overcast  
Wind Chill: 39°   Ceiling: 6000
Heat Index: 43°   Visibility: 10mi
Dew Point: 22°   Wind: 7mph
Humidity: 43%   Direction: 190°S
Pressure: 30.15"   Gusts: NA
Location:  41.5523°N, 72.0921°W
Report Text: KIJD 231152Z AUTO 19006KT 10SM BKN060 BKN080 OVC100 06/M06 A3015 RMK AO2 RAE02B26E35 SLP211 P0000 60000 T00611056 10067 20061 53005
Loading
Personal Weather Stations






























Interactive Weather Map New forecast layout! Learn more

10-Day Weather Forecast

Advertisements
Track Severe Weather on mobile